createdAt,value
2019-03-25T00:02:15.576Z,98159.33
2019-03-25T00:04:47.945Z,98142.33
2019-03-25T00:07:21.339Z,98147.66
2019-03-25T00:09:53.971Z,98145.55
2019-03-25T00:12:26.291Z,98144.20
2019-03-25T00:14:59.336Z,98138.80
2019-03-25T00:17:32.154Z,98136.63
2019-03-25T00:20:06.050Z,98127.95
2019-03-25T00:22:40.084Z,98127.38
2019-03-25T00:25:12.703Z,98123.02
2019-03-25T00:27:45.188Z,98123.20
2019-03-25T00:30:17.471Z,98119.50
2019-03-25T00:32:51.483Z,98119.50
2019-03-25T00:35:24.346Z,98122.44
2019-03-25T00:37:59.498Z,98114.41
2019-03-25T00:40:33.590Z,98117.50
2019-03-25T00:43:07.982Z,98118.08
2019-03-25T00:45:40.617Z,98103.50
2019-03-25T00:48:15.345Z,98104.98
2019-03-25T00:50:47.774Z,98102.65
2019-03-25T00:53:20.759Z,98097.84
2019-03-25T00:55:54.694Z,98093.28
2019-03-25T00:58:28.976Z,98088.99
2019-03-25T01:01:02.278Z,98086.23
2019-03-25T01:03:35.379Z,98092.58
2019-03-25T01:06:08.271Z,98086.50
2019-03-25T01:08:41.239Z,98080.03
2019-03-25T01:11:13.575Z,98077.61
2019-03-25T01:13:47.728Z,98066.13
2019-03-25T01:16:22.976Z,98065.25
2019-03-25T01:18:55.681Z,98064.37
2019-03-25T01:21:28.542Z,98057.87
2019-03-25T01:24:01.094Z,98055.64
2019-03-25T01:26:33.449Z,98056.36
2019-03-25T01:29:08.145Z,98050.82
2019-03-25T01:31:40.709Z,98045.05
2019-03-25T01:34:13.058Z,98045.88
2019-03-25T01:36:45.779Z,98039.57
2019-03-25T01:39:18.100Z,98040.11
2019-03-25T01:41:50.807Z,98038.28
2019-03-25T01:44:23.526Z,98035.52
2019-03-25T01:46:57.110Z,98037.91
2019-03-25T01:49:29.832Z,98032.17
2019-03-25T01:52:02.197Z,98037.25
2019-03-25T01:54:35.889Z,98037.71
2019-03-25T01:57:08.290Z,98038.99
2019-03-25T01:59:41.234Z,98032.88
2019-03-25T02:02:13.421Z,98044.16
2019-03-25T02:04:46.493Z,98034.74
2019-03-25T02:07:20.558Z,98019.28
2019-03-25T02:09:52.901Z,98019.12
2019-03-25T02:12:25.571Z,98019.95
2019-03-25T02:14:57.933Z,98005.92
2019-03-25T02:17:31.124Z,98010.27
2019-03-25T02:20:05.186Z,98004.37
2019-03-25T02:22:37.707Z,98000.01
2019-03-25T02:25:10.093Z,97999.09
2019-03-25T02:27:42.410Z,97990.78
2019-03-25T02:30:16.408Z,98000.81
2019-03-25T02:32:48.963Z,98000.81
2019-03-25T02:35:21.323Z,98002.44
2019-03-25T02:37:55.238Z,97997.83
2019-03-25T02:40:27.853Z,97987.95
2019-03-25T02:43:03.419Z,97987.95
2019-03-25T02:45:36.041Z,97991.14
2019-03-25T02:48:08.423Z,97997.36
2019-03-25T02:50:41.080Z,97997.16
2019-03-25T02:53:13.290Z,97996.94
2019-03-25T02:55:45.548Z,97987.23
2019-03-25T02:58:17.693Z,97982.53
2019-03-25T03:00:50.499Z,97981.57
2019-03-25T03:03:22.832Z,97983.09
2019-03-25T03:05:56.009Z,97978.09
2019-03-25T03:08:28.649Z,97972.92
2019-03-25T03:11:01.017Z,97971.89
2019-03-25T03:13:33.749Z,97963.30
2019-03-25T03:16:06.999Z,97963.16
2019-03-25T03:18:39.334Z,97963.16
2019-03-25T03:21:11.923Z,97958.95
2019-03-25T03:23:45.022Z,97964.27
2019-03-25T03:26:20.116Z,97965.23
2019-03-25T03:28:52.700Z,97963.95
2019-03-25T03:31:24.939Z,97963.20
2019-03-25T03:33:57.270Z,97961.58
2019-03-25T03:36:34.240Z,97950.95
2019-03-25T03:39:08.632Z,97952.16
2019-03-25T03:41:40.907Z,97951.98
2019-03-25T03:44:13.708Z,97947.23
2019-03-25T03:46:46.410Z,97955.81
2019-03-25T03:49:18.796Z,97946.16
2019-03-25T03:51:53.641Z,97946.09
2019-03-25T03:54:26.327Z,97948.27
2019-03-25T03:57:00.206Z,97946.77
2019-03-25T03:59:33.098Z,97945.50
2019-03-25T04:02:06.627Z,97947.88
2019-03-25T04:04:39.029Z,97944.53
2019-03-25T04:07:11.353Z,97945.27
2019-03-25T04:09:43.850Z,97948.27
2019-03-25T04:12:17.086Z,97935.33
2019-03-25T04:14:49.398Z,97931.23
2019-03-25T04:17:21.616Z,97922.44
2019-03-25T04:19:54.688Z,97922.85
2019-03-25T04:22:27.843Z,97919.81
2019-03-25T04:25:00.092Z,97911.58
2019-03-25T04:27:33.504Z,97902.78
2019-03-25T04:30:07.307Z,97904.34
2019-03-25T04:32:39.564Z,97895.06
2019-03-25T04:35:12.247Z,97888.79
2019-03-25T04:37:46.178Z,97894.09
2019-03-25T04:40:19.251Z,97896.64
2019-03-25T04:42:51.784Z,97897.44
2019-03-25T04:45:24.315Z,97899.81
2019-03-25T04:47:56.684Z,97907.47
2019-03-25T04:50:29.252Z,97899.63
2019-03-25T04:53:01.555Z,97895.28
2019-03-25T04:55:33.954Z,97896.63
2019-03-25T04:58:06.912Z,97898.81
2019-03-25T05:00:40.103Z,97897.37
2019-03-25T05:03:12.523Z,97901.27
2019-03-25T05:05:45.268Z,97898.51
2019-03-25T05:08:18.221Z,97897.16
2019-03-25T05:10:50.689Z,97886.09
2019-03-25T05:13:22.916Z,97885.98
2019-03-25T05:15:55.128Z,97876.75
2019-03-25T05:18:27.512Z,97872.13
2019-03-25T05:20:59.786Z,97868.30
2019-03-25T05:23:33.338Z,97871.42
2019-03-25T05:26:06.525Z,97872.62
2019-03-25T05:28:39.311Z,97877.05
2019-03-25T05:31:12.429Z,97875.65
2019-03-25T05:33:45.134Z,97871.45
2019-03-25T05:36:17.768Z,97869.16
2019-03-25T05:38:52.224Z,97873.73
2019-03-25T05:41:24.641Z,97873.33
2019-03-25T05:43:57.064Z,97866.14
2019-03-25T05:46:29.613Z,97871.64
2019-03-25T05:49:03.927Z,97865.38
2019-03-25T05:51:36.801Z,97870.88
2019-03-25T05:54:09.150Z,97874.94
2019-03-25T05:56:41.481Z,97879.83
2019-03-25T05:59:14.038Z,97875.81
2019-03-25T06:01:46.656Z,97873.72
2019-03-25T06:04:18.832Z,97873.16
2019-03-25T06:06:52.197Z,97866.76
2019-03-25T06:09:26.393Z,97866.76
2019-03-25T06:11:58.743Z,97861.97
2019-03-25T06:14:31.094Z,97871.62
2019-03-25T06:17:04.290Z,97864.59
2019-03-25T06:19:36.590Z,97861.45
2019-03-25T06:22:08.881Z,97865.78
2019-03-25T06:24:41.696Z,97861.91
2019-03-25T06:27:14.698Z,97869.20
2019-03-25T06:29:48.445Z,97867.86
2019-03-25T06:32:20.923Z,97871.03
2019-03-25T06:34:53.107Z,97879.75
2019-03-25T06:37:27.508Z,97878.41
2019-03-25T06:40:01.623Z,97869.95
2019-03-25T06:42:34.966Z,97877.88
2019-03-25T06:45:09.295Z,97870.34
2019-03-25T06:47:43.815Z,97863.50
2019-03-25T06:50:16.968Z,97856.52
2019-03-25T06:52:49.627Z,97863.34
2019-03-25T06:55:22.615Z,97864.21
2019-03-25T06:57:56.019Z,97862.31
2019-03-25T07:00:28.374Z,97857.75
2019-03-25T07:03:01.904Z,97863.36
2019-03-25T07:05:35.758Z,97853.66
2019-03-25T07:08:08.501Z,97854.50
2019-03-25T07:10:40.710Z,97862.19
2019-03-25T07:13:12.940Z,97861.14
2019-03-25T07:15:45.163Z,97850.41
2019-03-25T07:18:17.796Z,97858.27
2019-03-25T07:20:50.036Z,97869.22
2019-03-25T07:23:22.491Z,97862.44
2019-03-25T07:25:57.283Z,97857.34
2019-03-25T07:28:29.674Z,97856.94
2019-03-25T07:31:03.839Z,97856.77
2019-03-25T07:33:36.163Z,97859.00
2019-03-25T07:36:08.665Z,97856.22
2019-03-25T07:38:41.185Z,97861.03
2019-03-25T07:41:14.349Z,97862.84
2019-03-25T07:43:48.353Z,97865.27
2019-03-25T07:46:20.662Z,97876.72
2019-03-25T07:48:53.329Z,97878.27
2019-03-25T07:51:26.797Z,97876.55
2019-03-25T07:53:59.120Z,97893.84
2019-03-25T07:56:31.735Z,97866.02
2019-03-25T07:59:04.424Z,97866.02
2019-03-25T08:01:36.796Z,97872.53
2019-03-25T08:04:10.347Z,97874.21
2019-03-25T08:06:43.616Z,97861.86
2019-03-25T08:09:16.141Z,97874.09
2019-03-25T08:11:49.441Z,97847.69
2019-03-25T08:14:22.736Z,97858.76
2019-03-25T08:16:55.861Z,97856.25
2019-03-25T08:19:28.048Z,97843.55
2019-03-25T08:22:00.872Z,97846.48
2019-03-25T08:24:33.686Z,97849.18
2019-03-25T08:27:06.803Z,97856.66
2019-03-25T08:29:40.363Z,97856.66
2019-03-25T08:32:13.141Z,97843.53
2019-03-25T08:34:45.488Z,97841.12
2019-03-25T08:37:18.105Z,97838.13
2019-03-25T08:39:51.101Z,97842.67
2019-03-25T08:42:24.372Z,97828.30
2019-03-25T08:44:56.572Z,97820.64
2019-03-25T08:47:28.788Z,97816.92
2019-03-25T08:50:01.072Z,97814.53
2019-03-25T08:52:33.539Z,97802.69
2019-03-25T08:55:07.774Z,97797.06
2019-03-25T08:57:40.463Z,97807.65
2019-03-25T09:00:13.468Z,97798.03
2019-03-25T09:02:46.160Z,97798.03
2019-03-25T09:05:20.809Z,97801.52
2019-03-25T09:07:53.591Z,97790.30
2019-03-25T09:10:26.176Z,97794.39
2019-03-25T09:13:00.689Z,97787.73
2019-03-25T09:15:34.060Z,97789.61
2019-03-25T09:18:06.868Z,97796.91
2019-03-25T09:20:39.238Z,97791.86
2019-03-25T09:23:11.812Z,97784.00
2019-03-25T09:25:44.050Z,97786.84
2019-03-25T09:28:24.127Z,97791.84
2019-03-25T09:31:20.638Z,97777.81
2019-03-25T09:33:52.923Z,97775.61
2019-03-25T09:36:25.963Z,97765.72
2019-03-25T09:39:00.087Z,97765.72
2019-03-25T09:41:32.730Z,97765.34
2019-03-25T09:44:04.992Z,97768.39
2019-03-25T09:46:37.849Z,97765.96
2019-03-25T09:49:10.271Z,97752.41
2019-03-25T09:51:42.753Z,97751.80
2019-03-25T09:54:16.220Z,97748.30
2019-03-25T09:56:48.625Z,97752.97
2019-03-25T09:59:21.213Z,97755.20
2019-03-25T10:01:53.692Z,97746.59
2019-03-25T10:04:26.272Z,97749.16
2019-03-25T10:06:58.505Z,97778.03
2019-03-25T10:09:31.635Z,97798.66
2019-03-25T10:12:04.104Z,97817.86
2019-03-25T10:14:36.953Z,97810.60
2019-03-25T10:17:09.886Z,97780.67
2019-03-25T10:19:42.240Z,97781.08
2019-03-25T10:22:14.797Z,97768.89
2019-03-25T10:24:46.991Z,97759.89
2019-03-25T10:27:19.343Z,97751.64
2019-03-25T10:29:51.649Z,97738.19
2019-03-25T10:32:24.153Z,97732.09
2019-03-25T10:34:56.631Z,97727.37
2019-03-25T10:37:29.728Z,97728.20
2019-03-25T10:40:02.006Z,97731.59
2019-03-25T10:42:34.859Z,97720.55
2019-03-25T10:45:07.851Z,97714.87
2019-03-25T10:47:40.535Z,97718.66
2019-03-25T10:50:13.415Z,97721.26
2019-03-25T10:52:46.301Z,97712.55
2019-03-25T10:55:19.020Z,97706.63
2019-03-25T10:57:51.506Z,97709.84
2019-03-25T11:00:24.743Z,97706.55
2019-03-25T11:02:57.745Z,97695.84
2019-03-25T11:05:30.319Z,97690.89
2019-03-25T11:08:03.002Z,97685.39
2019-03-25T11:10:35.464Z,97683.38
2019-03-25T11:13:09.451Z,97679.14
2019-03-25T11:15:41.898Z,97681.48
2019-03-25T11:18:14.554Z,97674.25
2019-03-25T11:20:47.048Z,97670.22
2019-03-25T11:23:20.276Z,97665.78
2019-03-25T11:25:52.578Z,97651.83
2019-03-25T11:28:25.217Z,97644.53
2019-03-25T11:30:59.344Z,97656.40
2019-03-25T11:33:36.522Z,97644.42
2019-03-25T11:36:08.880Z,97644.24
2019-03-25T11:38:41.232Z,97643.29
2019-03-25T11:41:13.982Z,97650.98
2019-03-25T11:43:46.611Z,97647.25
2019-03-25T11:46:20.051Z,97640.71
2019-03-25T11:48:52.703Z,97662.19
2019-03-25T11:51:25.344Z,97648.81
2019-03-25T11:53:58.682Z,97669.29
2019-03-25T11:56:31.080Z,97643.79
2019-03-25T11:59:04.521Z,97635.95
2019-03-25T12:01:38.053Z,97633.20
2019-03-25T12:04:10.649Z,97624.28
2019-03-25T12:06:43.079Z,97633.10
2019-03-25T12:09:15.595Z,97630.08
2019-03-25T12:11:47.984Z,97623.91
2019-03-25T12:14:20.412Z,97623.03
2019-03-25T12:16:52.716Z,97634.96
2019-03-25T12:19:25.333Z,97613.52
2019-03-25T12:21:58.049Z,97622.52
2019-03-25T12:24:30.357Z,97627.25
2019-03-25T12:27:02.759Z,97621.10
2019-03-25T12:29:35.316Z,97630.03
2019-03-25T12:32:07.698Z,97626.13
2019-03-25T12:34:43.208Z,97627.40
2019-03-25T12:37:15.606Z,97628.69
2019-03-25T12:39:47.949Z,97636.78
2019-03-25T12:42:20.158Z,97636.89
2019-03-25T12:44:52.855Z,97641.89
2019-03-25T12:47:25.643Z,97642.52
2019-03-25T12:49:58.350Z,97641.42
2019-03-25T12:52:30.563Z,97669.95
2019-03-25T12:55:03.072Z,97713.31
2019-03-25T12:57:35.517Z,97762.63
2019-03-25T13:00:08.924Z,97740.46
2019-03-25T13:02:41.203Z,97745.67
2019-03-25T13:05:14.057Z,97741.02
2019-03-25T13:07:47.407Z,97717.00
2019-03-25T13:10:19.871Z,97687.92
2019-03-25T13:12:52.177Z,97674.58
2019-03-25T13:15:25.098Z,97684.44
2019-03-25T13:17:59.749Z,97665.62
2019-03-25T13:20:32.110Z,97679.94
2019-03-25T13:23:04.834Z,97711.71
2019-03-25T13:25:39.520Z,97725.23
2019-03-25T13:28:12.185Z,97708.00
2019-03-25T13:30:44.563Z,97730.23
2019-03-25T13:33:17.183Z,97719.48
2019-03-25T13:35:50.980Z,97695.32
2019-03-25T13:38:25.297Z,97743.95
2019-03-25T13:40:57.875Z,97745.95
2019-03-25T13:43:31.378Z,97700.17
2019-03-25T13:46:05.612Z,97701.44
2019-03-25T13:48:38.146Z,97703.61
2019-03-25T13:51:10.573Z,97698.77
2019-03-25T13:53:42.953Z,97713.80
2019-03-25T13:56:16.173Z,97726.20
2019-03-25T13:58:49.302Z,97706.89
2019-03-25T14:01:22.072Z,97679.59
2019-03-25T14:03:54.442Z,97661.23
2019-03-25T14:06:26.736Z,97660.31
2019-03-25T14:08:58.895Z,97664.78
2019-03-25T14:11:32.343Z,97672.37
2019-03-25T14:14:04.602Z,97704.98
2019-03-25T14:16:36.813Z,97700.06
2019-03-25T14:19:11.556Z,97708.77
2019-03-25T14:21:44.087Z,97703.91
2019-03-25T14:24:18.320Z,97693.16
2019-03-25T14:26:50.590Z,97684.19
2019-03-25T14:29:24.969Z,97687.55
2019-03-25T14:31:57.255Z,97687.98
2019-03-25T14:34:29.945Z,97689.58
2019-03-25T14:37:02.396Z,97693.95
2019-03-25T14:39:34.988Z,97696.97
2019-03-25T14:42:07.460Z,97701.22
2019-03-25T14:44:41.057Z,97703.42
2019-03-25T14:47:13.831Z,97707.15
2019-03-25T14:49:46.599Z,97709.02
2019-03-25T14:52:19.961Z,97707.27
2019-03-25T14:54:54.064Z,97705.13
2019-03-25T14:57:26.382Z,97707.41
2019-03-25T14:59:58.914Z,97704.41
2019-03-25T15:02:33.186Z,97704.12
2019-03-25T15:05:05.676Z,97703.22
2019-03-25T15:07:38.083Z,97704.45
2019-03-25T15:10:11.082Z,97707.81
2019-03-25T15:12:43.427Z,97713.08
2019-03-25T15:15:15.753Z,97709.93
2019-03-25T15:17:48.435Z,97712.50
2019-03-25T15:20:21.723Z,97714.67
2019-03-25T15:22:54.050Z,97712.77
2019-03-25T15:25:26.296Z,97708.92
2019-03-25T15:27:59.171Z,97713.25
2019-03-25T15:30:36.154Z,97715.61
2019-03-25T15:33:06.919Z,97721.75
2019-03-25T15:35:39.491Z,97727.28
2019-03-25T15:38:11.945Z,97736.48
2019-03-25T15:40:44.738Z,97735.69
2019-03-25T15:43:17.144Z,97730.63
2019-03-25T15:45:52.186Z,97732.42
2019-03-25T15:48:24.851Z,97732.42
2019-03-25T15:50:57.668Z,97748.47
2019-03-25T15:53:30.123Z,97735.08
2019-03-25T15:56:02.876Z,97732.55
2019-03-25T15:58:35.335Z,97726.91
2019-03-25T16:01:07.770Z,97742.94
2019-03-25T16:03:40.131Z,97735.94
2019-03-25T16:06:12.541Z,97768.43
2019-03-25T16:08:44.815Z,97773.34
2019-03-25T16:11:17.098Z,97811.33
2019-03-25T16:13:50.650Z,97803.49
2019-03-25T16:16:25.296Z,97787.70
2019-03-25T16:18:57.771Z,97788.13
2019-03-25T16:21:30.002Z,97789.99
2019-03-25T16:24:02.394Z,97788.96
2019-03-25T16:26:34.579Z,97801.04
2019-03-25T16:29:06.850Z,97794.53
2019-03-25T16:31:39.110Z,97794.25
2019-03-25T16:34:11.440Z,97804.24
2019-03-25T16:36:43.609Z,97804.00
2019-03-25T16:39:15.821Z,97807.13
2019-03-25T16:41:48.099Z,97815.72
2019-03-25T16:44:20.344Z,97807.47
2019-03-25T16:46:52.589Z,97807.47
2019-03-25T16:49:24.794Z,97816.42
2019-03-25T16:51:57.040Z,97822.69
2019-03-25T16:54:29.183Z,97815.47
2019-03-25T16:57:01.578Z,97830.13
2019-03-25T16:59:33.746Z,97828.73
2019-03-25T17:02:06.432Z,97825.22
2019-03-25T17:04:38.944Z,97829.45
2019-03-25T17:07:11.302Z,97823.70
2019-03-25T17:09:44.417Z,97844.58
2019-03-25T17:12:17.185Z,97829.14
2019-03-25T17:14:49.696Z,97857.28
2019-03-25T17:17:22.224Z,97865.17
2019-03-25T17:19:54.664Z,97868.49
2019-03-25T17:22:53.488Z,97863.24
2019-03-25T17:25:25.870Z,97879.58
2019-03-25T17:27:58.381Z,97880.67
2019-03-25T17:30:30.802Z,97880.67
2019-03-25T17:33:03.347Z,97894.70
2019-03-25T17:35:35.761Z,97903.09
2019-03-25T17:38:08.028Z,97915.97
2019-03-25T17:40:40.202Z,97915.97
2019-03-25T17:43:12.416Z,97931.14
2019-03-25T17:45:44.649Z,97924.95
2019-03-25T17:48:17.024Z,97924.72
2019-03-25T17:50:49.255Z,97938.02
2019-03-25T17:53:21.867Z,97934.53
2019-03-25T17:55:55.304Z,97930.83
2019-03-25T17:58:27.676Z,97944.67
2019-03-25T18:01:09.590Z,97942.50
2019-03-25T18:03:42.004Z,97943.73
2019-03-25T18:06:15.480Z,97934.94
2019-03-25T18:08:47.811Z,97938.14
2019-03-25T18:11:20.071Z,97942.16
2019-03-25T18:13:52.517Z,97956.91
2019-03-25T18:16:24.731Z,97932.40
2019-03-25T18:18:58.682Z,97950.12
2019-03-25T18:21:31.162Z,97954.88
2019-03-25T18:24:05.220Z,97962.19
2019-03-25T18:26:37.617Z,97969.95
2019-03-25T18:29:10.699Z,97974.75
2019-03-25T18:31:44.084Z,97969.70
2019-03-25T18:34:16.472Z,97973.81
2019-03-25T18:36:48.754Z,97986.80
2019-03-25T18:39:20.910Z,97978.95
2019-03-25T18:41:53.203Z,97992.25
2019-03-25T18:44:26.146Z,97978.52
2019-03-25T18:46:58.641Z,97975.41
2019-03-25T18:49:30.968Z,97986.89
2019-03-25T18:52:03.282Z,97984.86
2019-03-25T18:54:35.473Z,97983.94
2019-03-25T18:57:07.708Z,97991.36
2019-03-25T18:59:39.848Z,97989.41
2019-03-25T19:02:12.081Z,97984.70
2019-03-25T19:04:44.446Z,97984.70
2019-03-25T19:07:17.241Z,98003.69
2019-03-25T19:09:51.020Z,97997.11
2019-03-25T19:12:23.711Z,98010.94
2019-03-25T19:14:55.958Z,98020.75
2019-03-25T19:17:28.311Z,98014.33
2019-03-25T19:20:00.867Z,98004.00
2019-03-25T19:22:33.555Z,98022.09
2019-03-25T19:25:06.823Z,98009.80
2019-03-25T19:27:39.166Z,98015.39
2019-03-25T19:30:11.883Z,98004.06
2019-03-25T19:32:44.227Z,98034.30
2019-03-25T19:35:16.731Z,98029.45
2019-03-25T19:37:48.943Z,98042.13
2019-03-25T19:40:21.130Z,98059.55
2019-03-25T19:42:53.356Z,98031.48
2019-03-25T19:45:25.585Z,98029.13
2019-03-25T19:47:57.734Z,98040.05
2019-03-25T19:50:29.938Z,98037.69
2019-03-25T19:53:02.167Z,98067.17
2019-03-25T19:55:34.348Z,98032.00
2019-03-25T19:58:06.742Z,98032.00
2019-03-25T20:00:42.164Z,98027.80
2019-03-25T20:03:14.399Z,98042.34
2019-03-25T20:05:46.570Z,98042.34
2019-03-25T20:08:19.845Z,98042.73
2019-03-25T20:10:52.185Z,98044.11
2019-03-25T20:13:24.458Z,98035.42
2019-03-25T20:15:56.746Z,98049.97
2019-03-25T20:18:28.868Z,98039.25
2019-03-25T20:21:01.189Z,98062.55
2019-03-25T20:23:33.400Z,98062.55
2019-03-25T20:26:06.490Z,98063.16
2019-03-25T20:28:38.879Z,98069.16
2019-03-25T20:31:11.197Z,98078.00
2019-03-25T20:33:43.330Z,98089.04
2019-03-25T20:36:15.634Z,98093.38
2019-03-25T20:38:49.410Z,98089.45
2019-03-25T20:41:22.154Z,98071.10
2019-03-25T20:43:55.358Z,98105.54
2019-03-25T20:46:27.756Z,98096.77
2019-03-25T20:48:59.921Z,98106.14
2019-03-25T20:51:32.196Z,98090.38
2019-03-25T20:54:04.580Z,98108.13
2019-03-25T20:56:36.884Z,98127.91
2019-03-25T20:59:09.223Z,98141.03
2019-03-25T21:01:41.583Z,98128.97
2019-03-25T21:04:14.161Z,98151.53
2019-03-25T21:06:46.461Z,98149.48
2019-03-25T21:09:18.940Z,98149.48
2019-03-25T21:11:51.100Z,98157.71
2019-03-25T21:14:23.357Z,98146.70
2019-03-25T21:16:55.883Z,98143.19
2019-03-25T21:19:28.583Z,98156.69
2019-03-25T21:22:00.809Z,98172.47
2019-03-25T21:24:33.125Z,98162.98
2019-03-25T21:27:06.506Z,98165.05
2019-03-25T21:29:38.975Z,98176.80
2019-03-25T21:32:11.331Z,98172.88
2019-03-25T21:34:43.574Z,98176.19
2019-03-25T21:37:15.815Z,98180.73
2019-03-25T21:39:48.128Z,98184.43
2019-03-25T21:42:20.586Z,98184.52
2019-03-25T21:44:52.811Z,98196.90
2019-03-25T21:47:26.499Z,98193.81
2019-03-25T21:49:59.032Z,98187.30
2019-03-25T21:52:31.540Z,98177.63
2019-03-25T21:55:04.443Z,98181.65
2019-03-25T21:57:36.795Z,98171.66
2019-03-25T22:00:10.235Z,98187.63
2019-03-25T22:02:42.877Z,98191.75
2019-03-25T22:05:15.471Z,98180.52
2019-03-25T22:07:47.893Z,98178.34
2019-03-25T22:10:20.795Z,98185.96
2019-03-25T22:12:53.397Z,98198.95
2019-03-25T22:15:25.764Z,98198.53
2019-03-25T22:17:58.942Z,98198.53
2019-03-25T22:20:32.242Z,98215.64
2019-03-25T22:23:05.240Z,98214.92
2019-03-25T22:25:41.353Z,98206.78
2019-03-25T22:28:15.577Z,98219.16
2019-03-25T22:30:50.094Z,98226.98
2019-03-25T22:33:26.101Z,98228.43
2019-03-25T22:36:02.855Z,98249.97
2019-03-25T22:38:36.628Z,98239.03
2019-03-25T22:41:09.547Z,98243.27
2019-03-25T22:43:42.068Z,98240.98
2019-03-25T22:46:15.005Z,98238.13
2019-03-25T22:48:47.717Z,98231.09
2019-03-25T22:51:20.003Z,98224.80
2019-03-25T22:53:55.348Z,98229.88
2019-03-25T22:56:29.712Z,98220.90
2019-03-25T22:59:01.944Z,98227.38
2019-03-25T23:01:36.060Z,98217.49
2019-03-25T23:04:10.591Z,98222.53
2019-03-25T23:06:44.253Z,98218.41
2019-03-25T23:09:18.441Z,98222.24
2019-03-25T23:11:51.720Z,98229.95
2019-03-25T23:14:27.467Z,98238.50
2019-03-25T23:17:00.034Z,98254.28
2019-03-25T23:19:33.536Z,98256.14
2019-03-25T23:22:07.632Z,98265.70
2019-03-25T23:24:40.907Z,98265.70
2019-03-25T23:27:16.113Z,98285.29
2019-03-25T23:29:50.040Z,98280.88
2019-03-25T23:32:26.195Z,98288.08
2019-03-25T23:35:00.410Z,98291.16
2019-03-25T23:37:33.457Z,98295.50
2019-03-25T23:40:07.264Z,98293.33
2019-03-25T23:42:41.500Z,98299.02
2019-03-25T23:45:15.802Z,98300.00
2019-03-25T23:47:50.441Z,98313.28
2019-03-25T23:50:25.863Z,98319.66
2019-03-25T23:52:59.390Z,98316.14
2019-03-25T23:55:32.605Z,98322.95
2019-03-25T23:58:05.402Z,98319.84
